sensor_id;sensor_type;location;lat;lon;timestamp;pressure;altitude;pressure_sealevel;temperature;humidity
55113;BME280;41006;50.920;3.456;2022-08-21T00:00:25;101521.88;;;22.63;49.96
55113;BME280;41006;50.920;3.456;2022-08-21T00:00:59;101520.00;;;22.47;50.10
55113;BME280;41006;50.920;3.456;2022-08-21T00:01:31;101520.16;;;22.62;49.97
55113;BME280;41006;50.920;3.456;2022-08-21T00:02:02;101522.78;;;22.63;50.13
55113;BME280;41006;50.920;3.456;2022-08-21T00:02:32;101519.06;;;22.31;50.80
55113;BME280;41006;50.920;3.456;2022-08-21T00:03:04;101523.56;;;22.48;50.77
55113;BME280;41006;50.920;3.456;2022-08-21T00:03:35;101517.53;;;22.60;50.41
55113;BME280;41006;50.920;3.456;2022-08-21T00:04:08;101519.03;;;22.66;50.18
55113;BME280;41006;50.920;3.456;2022-08-21T00:04:42;101523.66;;;22.64;49.91
55113;BME280;41006;50.920;3.456;2022-08-21T00:05:15;101527.53;;;22.76;50.08
55113;BME280;41006;50.920;3.456;2022-08-21T00:05:47;101518.25;;;22.80;49.64
55113;BME280;41006;50.920;3.456;2022-08-21T00:06:19;101518.34;;;22.78;49.63
55113;BME280;41006;50.920;3.456;2022-08-21T00:06:50;101518.78;;;22.70;49.69
55113;BME280;41006;50.920;3.456;2022-08-21T00:07:20;101529.59;;;22.70;49.95
55113;BME280;41006;50.920;3.456;2022-08-21T00:07:51;101526.47;;;22.78;49.75
55113;BME280;41006;50.920;3.456;2022-08-21T00:08:22;101519.47;;;22.74;49.85
55113;BME280;41006;50.920;3.456;2022-08-21T00:08:54;101520.50;;;22.71;49.93
55113;BME280;41006;50.920;3.456;2022-08-21T00:09:25;101517.56;;;22.76;49.75
55113;BME280;41006;50.920;3.456;2022-08-21T00:09:55;101524.66;;;22.79;49.83
55113;BME280;41006;50.920;3.456;2022-08-21T00:10:26;101514.13;;;22.90;49.58
55113;BME280;41006;50.920;3.456;2022-08-21T00:10:59;101517.28;;;22.98;49.39
55113;BME280;41006;50.920;3.456;2022-08-21T00:11:32;101517.56;;;23.09;49.09
55113;BME280;41006;50.920;3.456;2022-08-21T00:12:05;101505.97;;;23.07;49.24
55113;BME280;41006;50.920;3.456;2022-08-21T00:12:39;101509.22;;;23.14;49.06
55113;BME280;41006;50.920;3.456;2022-08-21T00:13:12;101514.38;;;23.19;48.95
55113;BME280;41006;50.920;3.456;2022-08-21T00:13:45;101516.63;;;23.11;49.12
55113;BME280;41006;50.920;3.456;2022-08-21T00:14:16;101510.91;;;22.99;48.96
55113;BME280;41006;50.920;3.456;2022-08-21T00:14:49;101509.16;;;22.98;49.06
55113;BME280;41006;50.920;3.456;2022-08-21T00:15:21;101508.88;;;22.87;49.56
55113;BME280;41006;50.920;3.456;2022-08-21T00:15:51;101509.22;;;22.81;49.64
55113;BME280;41006;50.920;3.456;2022-08-21T00:16:22;101516.84;;;22.90;49.44
55113;BME280;41006;50.920;3.456;2022-08-21T00:16:55;101505.56;;;22.82;49.74
55113;BME280;41006;50.920;3.456;2022-08-21T00:17:25;101509.22;;;22.81;49.79
55113;BME280;41006;50.920;3.456;2022-08-21T00:17:55;101503.56;;;23.01;49.36
55113;BME280;41006;50.920;3.456;2022-08-21T00:18:28;101509.63;;;23.06;49.12
55113;BME280;41006;50.920;3.456;2022-08-21T00:18:58;101509.63;;;23.06;48.98
55113;BME280;41006;50.920;3.456;2022-08-21T00:19:29;101503.09;;;22.93;49.21
55113;BME280;41006;50.920;3.456;2022-08-21T00:20:00;101498.75;;;22.90;49.46
55113;BME280;41006;50.920;3.456;2022-08-21T00:20:33;101502.03;;;22.80;49.72
55113;BME280;41006;50.920;3.456;2022-08-21T00:21:04;101506.63;;;22.62;49.99
55113;BME280;41006;50.920;3.456;2022-08-21T00:21:35;101508.28;;;22.64;50.25
55113;BME280;41006;50.920;3.456;2022-08-21T00:22:05;101503.31;;;22.57;50.41
55113;BME280;41006;50.920;3.456;2022-08-21T00:22:35;101497.69;;;22.60;50.33
55113;BME280;41006;50.920;3.456;2022-08-21T00:23:06;101489.34;;;22.64;49.89
55113;BME280;41006;50.920;3.456;2022-08-21T00:23:36;101496.81;;;22.77;50.06
55113;BME280;41006;50.920;3.456;2022-08-21T00:24:07;101501.88;;;22.83;49.81
55113;BME280;41006;50.920;3.456;2022-08-21T00:24:40;101494.56;;;22.85;49.73
55113;BME280;41006;50.920;3.456;2022-08-21T00:25:11;101495.34;;;22.87;49.72
55113;BME280;41006;50.920;3.456;2022-08-21T00:25:42;101494.22;;;22.91;49.65
55113;BME280;41006;50.920;3.456;2022-08-21T00:26:13;101506.03;;;22.72;49.86
55113;BME280;41006;50.920;3.456;2022-08-21T00:26:45;101505.09;;;22.56;50.52
55113;BME280;41006;50.920;3.456;2022-08-21T00:27:16;101496.09;;;22.73;50.10
55113;BME280;41006;50.920;3.456;2022-08-21T00:27:46;101498.13;;;22.85;49.63
55113;BME280;41006;50.920;3.456;2022-08-21T00:28:17;101499.63;;;22.91;49.37
55113;BME280;41006;50.920;3.456;2022-08-21T00:28:48;101503.47;;;22.87;49.49
55113;BME280;41006;50.920;3.456;2022-08-21T00:29:18;101498.50;;;22.95;49.28
55113;BME280;41006;50.920;3.456;2022-08-21T00:29:52;101493.88;;;22.97;49.43
55113;BME280;41006;50.920;3.456;2022-08-21T00:30:26;101499.16;;;22.83;49.71
55113;BME280;41006;50.920;3.456;2022-08-21T00:30:57;101504.41;;;22.86;49.38
55113;BME280;41006;50.920;3.456;2022-08-21T00:31:27;101499.63;;;22.91;49.41
55113;BME280;41006;50.920;3.456;2022-08-21T00:32:00;101500.16;;;22.64;50.17
55113;BME280;41006;50.920;3.456;2022-08-21T00:32:32;101491.28;;;22.62;50.12
55113;BME280;41006;50.920;3.456;2022-08-21T00:33:03;101493.53;;;22.37;50.74
55113;BME280;41006;50.920;3.456;2022-08-21T00:33:34;101492.16;;;22.28;51.32
55113;BME280;41006;50.920;3.456;2022-08-21T00:34:04;101499.41;;;22.45;50.90
55113;BME280;41006;50.920;3.456;2022-08-21T00:34:34;101487.78;;;22.60;50.54
55113;BME280;41006;50.920;3.456;2022-08-21T00:35:06;101494.75;;;22.64;50.40
55113;BME280;41006;50.920;3.456;2022-08-21T00:35:38;101495.06;;;22.76;50.15
55113;BME280;41006;50.920;3.456;2022-08-21T00:36:09;101491.72;;;22.70;50.17
55113;BME280;41006;50.920;3.456;2022-08-21T00:36:41;101496.00;;;22.75;50.38
55113;BME280;41006;50.920;3.456;2022-08-21T00:37:11;101492.72;;;22.52;50.65
55113;BME280;41006;50.920;3.456;2022-08-21T00:37:44;101492.38;;;22.58;50.73
55113;BME280;41006;50.920;3.456;2022-08-21T00:38:14;101494.59;;;22.67;50.40
55113;BME280;41006;50.920;3.456;2022-08-21T00:38:45;101489.03;;;22.70;50.49
55113;BME280;41006;50.920;3.456;2022-08-21T00:39:17;101494.34;;;22.72;50.58
55113;BME280;41006;50.920;3.456;2022-08-21T00:39:48;101482.53;;;22.57;50.58
55113;BME280;41006;50.920;3.456;2022-08-21T00:40:20;101492.88;;;22.49;50.81
55113;BME280;41006;50.920;3.456;2022-08-21T00:40:56;101489.88;;;22.38;51.30
55113;BME280;41006;50.920;3.456;2022-08-21T00:41:26;101486.34;;;22.53;50.73
55113;BME280;41006;50.920;3.456;2022-08-21T00:41:59;101487.16;;;22.38;51.16
55113;BME280;41006;50.920;3.456;2022-08-21T00:42:29;101491.41;;;22.43;51.15
55113;BME280;41006;50.920;3.456;2022-08-21T00:43:04;101487.41;;;22.33;51.47
55113;BME280;41006;50.920;3.456;2022-08-21T00:43:36;101490.56;;;22.41;51.41
55113;BME280;41006;50.920;3.456;2022-08-21T00:44:09;101489.56;;;22.44;51.09
55113;BME280;41006;50.920;3.456;2022-08-21T00:44:41;101494.97;;;22.44;51.12
55113;BME280;41006;50.920;3.456;2022-08-21T00:45:14;101488.34;;;22.14;51.71
55113;BME280;41006;50.920;3.456;2022-08-21T00:45:45;101486.38;;;21.64;53.03
55113;BME280;41006;50.920;3.456;2022-08-21T00:46:16;101490.72;;;21.49;53.78
55113;BME280;41006;50.920;3.456;2022-08-21T00:46:46;101485.88;;;21.18;54.90
55113;BME280;41006;50.920;3.456;2022-08-21T00:47:18;101483.13;;;21.57;54.14
55113;BME280;41006;50.920;3.456;2022-08-21T00:47:49;101478.16;;;21.48;54.30
55113;BME280;41006;50.920;3.456;2022-08-21T00:48:23;101480.22;;;21.24;54.59
55113;BME280;41006;50.920;3.456;2022-08-21T00:48:56;101479.13;;;21.09;55.25
55113;BME280;41006;50.920;3.456;2022-08-21T00:49:27;101488.47;;;21.02;55.97
55113;BME280;41006;50.920;3.456;2022-08-21T00:50:00;101479.78;;;21.14;55.57
55113;BME280;41006;50.920;3.456;2022-08-21T00:50:33;101478.59;;;21.58;54.46
55113;BME280;41006;50.920;3.456;2022-08-21T00:51:06;101486.16;;;21.69;53.82
55113;BME280;41006;50.920;3.456;2022-08-21T00:51:49;101480.72;;;21.32;55.04
55113;BME280;41006;50.920;3.456;2022-08-21T00:52:22;101484.09;;;21.18;55.43
55113;BME280;41006;50.920;3.456;2022-08-21T00:52:57;101484.38;;;21.12;55.66
55113;BME280;41006;50.920;3.456;2022-08-21T00:53:28;101484.44;;;21.30;55.49
55113;BME280;41006;50.920;3.456;2022-08-21T00:53:59;101486.31;;;21.28;55.20
55113;BME280;41006;50.920;3.456;2022-08-21T00:54:31;101483.41;;;21.13;55.76
55113;BME280;41006;50.920;3.456;2022-08-21T00:55:03;101481.06;;;21.24;55.50
55113;BME280;41006;50.920;3.456;2022-08-21T00:55:34;101484.44;;;21.11;56.02
55113;BME280;41006;50.920;3.456;2022-08-21T00:56:09;101477.72;;;21.19;56.09
55113;BME280;41006;50.920;3.456;2022-08-21T00:56:42;101479.25;;;21.44;55.00
55113;BME280;41006;50.920;3.456;2022-08-21T00:57:17;101475.38;;;21.31;55.51
55113;BME280;41006;50.920;3.456;2022-08-21T00:57:52;101484.88;;;21.58;54.52
55113;BME280;41006;50.920;3.456;2022-08-21T00:58:26;101482.69;;;21.29;55.68
55113;BME280;41006;50.920;3.456;2022-08-21T00:59:00;101479.91;;;21.11;55.75
55113;BME280;41006;50.920;3.456;2022-08-21T00:59:35;101471.16;;;21.06;56.51
55113;BME280;41006;50.920;3.456;2022-08-21T01:00:12;101484.72;;;21.42;55.18
55113;BME280;41006;50.920;3.456;2022-08-21T01:00:44;101493.47;;;21.67;54.42
55113;BME280;41006;50.920;3.456;2022-08-21T01:01:18;101490.34;;;21.93;53.76
55113;BME280;41006;50.920;3.456;2022-08-21T01:01:50;101493.53;;;22.02;53.20
55113;BME280;41006;50.920;3.456;2022-08-21T01:02:22;101487.84;;;21.89;53.31
55113;BME280;41006;50.920;3.456;2022-08-21T01:02:52;101488.22;;;21.81;53.50
55113;BME280;41006;50.920;3.456;2022-08-21T01:03:23;101490.72;;;22.03;53.18
55113;BME280;41006;50.920;3.456;2022-08-21T01:03:54;101490.31;;;22.11;53.23
55113;BME280;41006;50.920;3.456;2022-08-21T01:04:27;101489.03;;;22.18;52.88
55113;BME280;41006;50.920;3.456;2022-08-21T01:05:02;101483.84;;;22.32;52.36
55113;BME280;41006;50.920;3.456;2022-08-21T01:05:32;101479.84;;;22.22;52.28
55113;BME280;41006;50.920;3.456;2022-08-21T01:06:05;101481.56;;;22.23;52.38
55113;BME280;41006;50.920;3.456;2022-08-21T01:06:38;101486.03;;;22.24;52.34
55113;BME280;41006;50.920;3.456;2022-08-21T01:07:09;101487.69;;;22.09;52.91
55113;BME280;41006;50.920;3.456;2022-08-21T01:07:42;101483.47;;;22.21;52.34
55113;BME280;41006;50.920;3.456;2022-08-21T01:08:15;101484.84;;;22.12;52.67
55113;BME280;41006;50.920;3.456;2022-08-21T01:08:48;101482.06;;;22.14;52.56
55113;BME280;41006;50.920;3.456;2022-08-21T01:09:18;101480.09;;;22.00;53.18
55113;BME280;41006;50.920;3.456;2022-08-21T01:09:49;101486.50;;;21.97;53.05
55113;BME280;41006;50.920;3.456;2022-08-21T01:10:22;101485.09;;;21.90;53.14
55113;BME280;41006;50.920;3.456;2022-08-21T01:10:53;101483.00;;;22.13;52.67
55113;BME280;41006;50.920;3.456;2022-08-21T01:11:23;101487.94;;;22.22;52.45
55113;BME280;41006;50.920;3.456;2022-08-21T01:11:56;101487.47;;;22.31;52.09
55113;BME280;41006;50.920;3.456;2022-08-21T01:12:29;101492.09;;;22.29;52.15
55113;BME280;41006;50.920;3.456;2022-08-21T01:13:02;101495.13;;;22.41;51.92
55113;BME280;41006;50.920;3.456;2022-08-21T01:13:37;101493.03;;;22.46;51.69
55113;BME280;41006;50.920;3.456;2022-08-21T01:14:17;101491.47;;;22.42;51.49
55113;BME280;41006;50.920;3.456;2022-08-21T01:14:49;101494.19;;;22.42;51.59
55113;BME280;41006;50.920;3.456;2022-08-21T01:15:19;101498.22;;;22.33;51.81
55113;BME280;41006;50.920;3.456;2022-08-21T01:15:54;101494.44;;;22.18;52.23
55113;BME280;41006;50.920;3.456;2022-08-21T01:16:28;101502.91;;;22.12;52.64
55113;BME280;41006;50.920;3.456;2022-08-21T01:16:59;101500.66;;;22.03;52.87
55113;BME280;41006;50.920;3.456;2022-08-21T01:17:31;101494.94;;;22.09;52.95
55113;BME280;41006;50.920;3.456;2022-08-21T01:18:03;101486.59;;;21.96;52.98
55113;BME280;41006;50.920;3.456;2022-08-21T01:18:37;101499.81;;;21.83;53.32
55113;BME280;41006;50.920;3.456;2022-08-21T01:19:10;101497.94;;;21.85;53.44
55113;BME280;41006;50.920;3.456;2022-08-21T01:19:40;101502.16;;;21.91;53.50
55113;BME280;41006;50.920;3.456;2022-08-21T01:20:13;101499.63;;;22.05;52.84
55113;BME280;41006;50.920;3.456;2022-08-21T01:20:45;101490.00;;;21.82;53.57
55113;BME280;41006;50.920;3.456;2022-08-21T01:21:23;101495.06;;;21.71;54.19
55113;BME280;41006;50.920;3.456;2022-08-21T01:21:54;101493.38;;;21.68;53.86
55113;BME280;41006;50.920;3.456;2022-08-21T01:22:26;101494.63;;;21.97;53.36
55113;BME280;41006;50.920;3.456;2022-08-21T01:22:57;101494.16;;;22.07;52.94
55113;BME280;41006;50.920;3.456;2022-08-21T01:23:27;101494.06;;;22.26;52.52
55113;BME280;41006;50.920;3.456;2022-08-21T01:24:00;101501.06;;;22.47;52.16
55113;BME280;41006;50.920;3.456;2022-08-21T01:24:31;101500.47;;;22.58;51.86
55113;BME280;41006;50.920;3.456;2022-08-21T01:25:03;101496.06;;;22.57;51.91
55113;BME280;41006;50.920;3.456;2022-08-21T01:25:34;101485.84;;;22.62;51.43
55113;BME280;41006;50.920;3.456;2022-08-21T01:26:05;101502.09;;;22.62;51.11
55113;BME280;41006;50.920;3.456;2022-08-21T01:26:35;101494.69;;;22.66;50.92
55113;BME280;41006;50.920;3.456;2022-08-21T01:27:06;101500.00;;;22.67;50.82
55113;BME280;41006;50.920;3.456;2022-08-21T01:27:38;101494.50;;;22.69;50.91
55113;BME280;41006;50.920;3.456;2022-08-21T01:28:12;101495.38;;;22.69;50.68
55113;BME280;41006;50.920;3.456;2022-08-21T01:28:46;101499.66;;;22.40;51.59
55113;BME280;41006;50.920;3.456;2022-08-21T01:30:09;101494.28;;;22.21;52.20
55113;BME280;41006;50.920;3.456;2022-08-21T01:30:40;101491.91;;;21.97;52.84
55113;BME280;41006;50.920;3.456;2022-08-21T01:31:12;101495.97;;;22.06;52.81
55113;BME280;41006;50.920;3.456;2022-08-21T01:31:44;101501.06;;;22.12;52.44
55113;BME280;41006;50.920;3.456;2022-08-21T01:32:16;101497.81;;;22.06;52.55
55113;BME280;41006;50.920;3.456;2022-08-21T01:32:47;101492.88;;;22.14;52.59
55113;BME280;41006;50.920;3.456;2022-08-21T01:33:18;101496.53;;;22.13;52.84
55113;BME280;41006;50.920;3.456;2022-08-21T01:33:50;101494.28;;;22.21;52.61
55113;BME280;41006;50.920;3.456;2022-08-21T01:34:23;101497.34;;;22.32;52.32
55113;BME280;41006;50.920;3.456;2022-08-21T01:34:53;101496.13;;;22.03;53.01
55113;BME280;41006;50.920;3.456;2022-08-21T01:35:24;101497.47;;;21.94;53.27
55113;BME280;41006;50.920;3.456;2022-08-21T01:35:54;101500.38;;;21.72;53.75
55113;BME280;41006;50.920;3.456;2022-08-21T01:36:25;101502.88;;;21.94;53.52
55113;BME280;41006;50.920;3.456;2022-08-21T01:36:57;101499.06;;;22.16;52.90
55113;BME280;41006;50.920;3.456;2022-08-21T01:37:28;101496.13;;;22.21;52.66
55113;BME280;41006;50.920;3.456;2022-08-21T01:38:01;101498.94;;;22.02;53.03
55113;BME280;41006;50.920;3.456;2022-08-21T01:38:34;101498.44;;;22.11;52.89
55113;BME280;41006;50.920;3.456;2022-08-21T01:39:06;101504.47;;;22.16;52.60
55113;BME280;41006;50.920;3.456;2022-08-21T01:39:37;101504.25;;;22.21;52.49
55113;BME280;41006;50.920;3.456;2022-08-21T01:40:10;101494.44;;;22.18;52.54
55113;BME280;41006;50.920;3.456;2022-08-21T01:40:43;101496.66;;;22.29;52.42
55113;BME280;41006;50.920;3.456;2022-08-21T01:41:14;101497.56;;;22.28;52.15
55113;BME280;41006;50.920;3.456;2022-08-21T01:41:47;101504.25;;;22.21;52.53
55113;BME280;41006;50.920;3.456;2022-08-21T01:42:17;101498.69;;;22.24;52.31
55113;BME280;41006;50.920;3.456;2022-08-21T01:42:48;101505.09;;;22.21;52.50
55113;BME280;41006;50.920;3.456;2022-08-21T01:43:21;101506.09;;;22.20;52.66
55113;BME280;41006;50.920;3.456;2022-08-21T01:43:51;101500.50;;;22.06;52.82
55113;BME280;41006;50.920;3.456;2022-08-21T01:44:21;101498.13;;;22.17;52.53
55113;BME280;41006;50.920;3.456;2022-08-21T01:44:54;101500.69;;;22.20;52.77
55113;BME280;41006;50.920;3.456;2022-08-21T01:45:30;101496.91;;;22.23;52.75
55113;BME280;41006;50.920;3.456;2022-08-21T01:46:03;101501.91;;;22.32;52.46
55113;BME280;41006;50.920;3.456;2022-08-21T01:46:41;101492.66;;;22.36;52.08
55113;BME280;41006;50.920;3.456;2022-08-21T01:47:12;101497.81;;;22.41;51.94
55113;BME280;41006;50.920;3.456;2022-08-21T01:47:45;101497.50;;;22.47;51.95
55113;BME280;41006;50.920;3.456;2022-08-21T01:48:15;101494.22;;;22.05;52.80
55113;BME280;41006;50.920;3.456;2022-08-21T01:48:45;101488.25;;;22.16;52.46
55113;BME280;41006;50.920;3.456;2022-08-21T01:49:18;101494.28;;;22.21;52.38
55113;BME280;41006;50.920;3.456;2022-08-21T01:49:48;101494.28;;;22.21;52.39
55113;BME280;41006;50.920;3.456;2022-08-21T01:50:19;101501.22;;;22.09;52.55
55113;BME280;41006;50.920;3.456;2022-08-21T01:50:50;101495.66;;;22.12;52.82
55113;BME280;41006;50.920;3.456;2022-08-21T01:51:20;101495.34;;;22.18;52.74
55113;BME280;41006;50.920;3.456;2022-08-21T01:51:51;101497.50;;;22.29;52.46
55113;BME280;41006;50.920;3.456;2022-08-21T01:52:22;101503.06;;;22.09;52.72
55113;BME280;41006;50.920;3.456;2022-08-21T01:52:55;101496.22;;;22.02;52.98
55113;BME280;41006;50.920;3.456;2022-08-21T01:53:25;101497.31;;;21.97;52.86
55113;BME280;41006;50.920;3.456;2022-08-21T01:53:56;101499.53;;;21.89;53.54
55113;BME280;41006;50.920;3.456;2022-08-21T01:54:28;101494.50;;;21.81;53.55
55113;BME280;41006;50.920;3.456;2022-08-21T01:54:59;101499.59;;;21.88;53.50
55113;BME280;41006;50.920;3.456;2022-08-21T01:55:32;101493.84;;;21.59;54.06
55113;BME280;41006;50.920;3.456;2022-08-21T01:56:04;101495.97;;;21.14;55.69
55113;BME280;41006;50.920;3.456;2022-08-21T01:56:36;101485.81;;;21.19;55.57
55113;BME280;41006;50.920;3.456;2022-08-21T01:57:07;101491.75;;;21.09;56.26
55113;BME280;41006;50.920;3.456;2022-08-21T01:57:40;101488.06;;;21.10;56.18
55113;BME280;41006;50.920;3.456;2022-08-21T01:58:10;101499.13;;;21.05;56.20
55113;BME280;41006;50.920;3.456;2022-08-21T01:58:41;101493.88;;;20.81;56.93
55113;BME280;41006;50.920;3.456;2022-08-21T01:59:14;101492.88;;;20.84;57.21
55113;BME280;41006;50.920;3.456;2022-08-21T01:59:47;101484.44;;;21.11;56.52
55113;BME280;41006;50.920;3.456;2022-08-21T02:00:18;101496.41;;;21.05;56.79
55113;BME280;41006;50.920;3.456;2022-08-21T02:00:48;101494.50;;;21.07;56.54
55113;BME280;41006;50.920;3.456;2022-08-21T02:01:19;101493.03;;;20.81;57.26
55113;BME280;41006;50.920;3.456;2022-08-21T02:01:52;101489.09;;;21.26;56.24
55113;BME280;41006;50.920;3.456;2022-08-21T02:02:24;101488.59;;;21.37;55.63
55113;BME280;41006;50.920;3.456;2022-08-21T02:02:54;101492.88;;;21.03;56.40
55113;BME280;41006;50.920;3.456;2022-08-21T02:03:30;101489.59;;;21.34;55.72
55113;BME280;41006;50.920;3.456;2022-08-21T02:04:02;101489.31;;;21.59;54.92
55113;BME280;41006;50.920;3.456;2022-08-21T02:04:33;101487.50;;;21.22;55.49
55113;BME280;41006;50.920;3.456;2022-08-21T02:05:03;101487.94;;;21.32;55.65
55113;BME280;41006;50.920;3.456;2022-08-21T02:05:34;101490.28;;;21.20;56.13
55113;BME280;41006;50.920;3.456;2022-08-21T02:06:07;101494.06;;;21.35;55.53
55113;BME280;41006;50.920;3.456;2022-08-21T02:06:38;101493.06;;;21.57;54.98
55113;BME280;41006;50.920;3.456;2022-08-21T02:07:11;101499.66;;;21.69;54.75
55113;BME280;41006;50.920;3.456;2022-08-21T02:07:42;101495.31;;;21.47;55.07
55113;BME280;41006;50.920;3.456;2022-08-21T02:08:15;101490.72;;;21.49;54.85
55113;BME280;41006;50.920;3.456;2022-08-21T02:08:46;101490.56;;;21.52;54.95
55113;BME280;41006;50.920;3.456;2022-08-21T02:09:19;101499.03;;;21.64;55.04
55113;BME280;41006;50.920;3.456;2022-08-21T02:09:49;101489.34;;;21.77;54.39
55113;BME280;41006;50.920;3.456;2022-08-21T02:10:22;101490.72;;;21.86;54.22
55113;BME280;41006;50.920;3.456;2022-08-21T02:10:53;101494.91;;;21.74;54.18
55113;BME280;41006;50.920;3.456;2022-08-21T02:11:23;101488.66;;;21.54;54.68
55113;BME280;41006;50.920;3.456;2022-08-21T02:11:56;101486.25;;;21.48;55.04
55113;BME280;41006;50.920;3.456;2022-08-21T02:12:29;101488.81;;;21.51;55.24
55113;BME280;41006;50.920;3.456;2022-08-21T02:12:59;101484.63;;;21.44;55.23
55113;BME280;41006;50.920;3.456;2022-08-21T02:13:32;101490.72;;;21.49;54.96
55113;BME280;41006;50.920;3.456;2022-08-21T02:14:13;101489.00;;;21.66;54.66
55113;BME280;41006;50.920;3.456;2022-08-21T02:14:44;101483.34;;;21.34;55.35
55113;BME280;41006;50.920;3.456;2022-08-21T02:15:14;101487.25;;;21.26;55.62
55113;BME280;41006;50.920;3.456;2022-08-21T02:15:44;101482.09;;;21.41;55.53
55113;BME280;41006;50.920;3.456;2022-08-21T02:16:17;101480.19;;;21.43;55.17
55113;BME280;41006;50.920;3.456;2022-08-21T02:16:47;101480.72;;;21.51;54.94
55113;BME280;41006;50.920;3.456;2022-08-21T02:17:17;101480.66;;;21.34;55.48
55113;BME280;41006;50.920;3.456;2022-08-21T02:17:50;101488.00;;;20.92;56.91
55113;BME280;41006;50.920;3.456;2022-08-21T02:18:23;101488.81;;;20.94;56.89
55113;BME280;41006;50.920;3.456;2022-08-21T02:18:56;101487.03;;;20.74;57.50
55113;BME280;41006;50.920;3.456;2022-08-21T02:19:26;101483.69;;;20.69;57.39
55113;BME280;41006;50.920;3.456;2022-08-21T02:19:59;101483.16;;;20.40;58.38
55113;BME280;41006;50.920;3.456;2022-08-21T02:20:30;101487.44;;;20.65;58.25
55113;BME280;41006;50.920;3.456;2022-08-21T02:21:04;101482.41;;;21.16;56.83
55113;BME280;41006;50.920;3.456;2022-08-21T02:21:34;101483.13;;;21.38;55.84
55113;BME280;41006;50.920;3.456;2022-08-21T02:22:04;101483.97;;;21.58;55.26
55113;BME280;41006;50.920;3.456;2022-08-21T02:22:37;101488.38;;;21.60;54.68
55113;BME280;41006;50.920;3.456;2022-08-21T02:23:10;101489.94;;;21.65;54.59
55113;BME280;41006;50.920;3.456;2022-08-21T02:23:40;101489.66;;;21.71;54.54
55113;BME280;41006;50.920;3.456;2022-08-21T02:24:11;101486.66;;;21.77;54.15
55113;BME280;41006;50.920;3.456;2022-08-21T02:24:41;101485.31;;;21.11;56.10
55113;BME280;41006;50.920;3.456;2022-08-21T02:25:11;101480.88;;;21.10;56.34
55113;BME280;41006;50.920;3.456;2022-08-21T02:25:42;101490.97;;;21.43;55.63
55113;BME280;41006;50.920;3.456;2022-08-21T02:26:14;101485.38;;;21.29;55.54
55113;BME280;41006;50.920;3.456;2022-08-21T02:26:47;101485.81;;;21.38;55.35
55113;BME280;41006;50.920;3.456;2022-08-21T02:27:23;101476.56;;;21.06;56.33
55113;BME280;41006;50.920;3.456;2022-08-21T02:27:57;101484.44;;;21.11;56.45
55113;BME280;41006;50.920;3.456;2022-08-21T02:28:28;101483.13;;;21.19;55.97
55113;BME280;41006;50.920;3.456;2022-08-21T02:28:58;101484.00;;;21.39;55.59
55113;BME280;41006;50.920;3.456;2022-08-21T02:29:28;101485.88;;;20.80;57.11
55113;BME280;41006;50.920;3.456;2022-08-21T02:30:01;101483.81;;;20.66;57.94
55113;BME280;41006;50.920;3.456;2022-08-21T02:30:33;101483.22;;;20.78;57.33
55113;BME280;41006;50.920;3.456;2022-08-21T02:31:04;101483.00;;;21.03;56.96
55113;BME280;41006;50.920;3.456;2022-08-21T02:31:35;101481.75;;;21.11;56.64
55113;BME280;41006;50.920;3.456;2022-08-21T02:32:08;101483.03;;;20.83;57.44
55113;BME280;41006;50.920;3.456;2022-08-21T02:32:38;101475.53;;;20.70;57.79
55113;BME280;41006;50.920;3.456;2022-08-21T02:33:10;101488.47;;;20.42;58.71
55113;BME280;41006;50.920;3.456;2022-08-21T02:33:45;101482.19;;;20.62;58.71
55113;BME280;41006;50.920;3.456;2022-08-21T02:34:16;101477.84;;;20.58;58.67
55113;BME280;41006;50.920;3.456;2022-08-21T02:34:46;101481.38;;;20.80;57.93
55113;BME280;41006;50.920;3.456;2022-08-21T02:35:18;101487.63;;;21.00;57.50
55113;BME280;41006;50.920;3.456;2022-08-21T02:35:52;101488.34;;;20.84;57.61
55113;BME280;41006;50.920;3.456;2022-08-21T02:36:22;101484.63;;;20.47;58.77
55113;BME280;41006;50.920;3.456;2022-08-21T02:36:55;101482.78;;;20.48;59.07
55113;BME280;41006;50.920;3.456;2022-08-21T02:37:28;101482.84;;;20.46;59.20
55113;BME280;41006;50.920;3.456;2022-08-21T02:38:03;101481.78;;;20.50;58.96
55113;BME280;41006;50.920;3.456;2022-08-21T02:38:34;101479.22;;;20.47;59.05
55113;BME280;41006;50.920;3.456;2022-08-21T02:39:08;101481.78;;;20.71;58.54
55113;BME280;41006;50.920;3.456;2022-08-21T02:39:40;101476.78;;;20.62;58.72
55113;BME280;41006;50.920;3.456;2022-08-21T02:40:10;101475.59;;;20.48;59.26
55113;BME280;41006;50.920;3.456;2022-08-21T02:40:42;101483.69;;;20.48;59.09
55113;BME280;41006;50.920;3.456;2022-08-21T02:41:13;101483.34;;;20.77;58.58
55113;BME280;41006;50.920;3.456;2022-08-21T02:41:46;101471.22;;;21.04;57.63
55113;BME280;41006;50.920;3.456;2022-08-21T02:42:19;101475.69;;;21.24;56.72
55113;BME280;41006;50.920;3.456;2022-08-21T02:42:52;101474.97;;;21.02;57.07
55113;BME280;41006;50.920;3.456;2022-08-21T02:43:25;101481.38;;;20.99;57.23
55113;BME280;41006;50.920;3.456;2022-08-21T02:43:59;101475.53;;;20.89;57.46
55113;BME280;41006;50.920;3.456;2022-08-21T02:44:31;101474.66;;;21.08;57.01
55113;BME280;41006;50.920;3.456;2022-08-21T02:45:02;101487.56;;;20.62;58.13
55113;BME280;41006;50.920;3.456;2022-08-21T02:45:33;101475.28;;;20.55;58.70
55113;BME280;41006;50.920;3.456;2022-08-21T02:46:04;101481.91;;;20.68;58.48
55113;BME280;41006;50.920;3.456;2022-08-21T02:46:35;101476.91;;;20.79;58.11
55113;BME280;41006;50.920;3.456;2022-08-21T02:47:08;101483.81;;;20.45;58.99
55113;BME280;41006;50.920;3.456;2022-08-21T02:47:46;101481.78;;;20.71;58.37
55113;BME280;41006;50.920;3.456;2022-08-21T02:48:18;101482.38;;;20.78;58.37